createdAt,value
2023-04-10T05:46:36.701Z,7.4
2023-04-10T05:52:29.246Z,7.6
2023-04-10T05:58:19.799Z,7.9
2023-04-10T06:04:10.458Z,8.1
2023-04-10T06:10:01.476Z,8.2
2023-04-10T06:15:53.956Z,8.2
2023-04-10T06:21:45.991Z,8.2
2023-04-10T06:27:46.095Z,8.2
2023-04-10T06:33:35.531Z,8.3
2023-04-10T06:39:26.667Z,8.3
2023-04-10T06:45:21.876Z,8.5
2023-04-10T06:51:13.057Z,8.6
2023-04-10T06:57:03.591Z,8.8
2023-04-10T07:02:55.688Z,8.9
2023-04-10T07:08:47.682Z,9.1
2023-04-10T07:14:40.317Z,9.3
2023-04-10T07:20:31.732Z,9.5
2023-04-10T07:26:23.269Z,9.6
2023-04-10T07:32:27.294Z,9.9
2023-04-10T07:38:22.295Z,10.1
2023-04-10T07:44:13.983Z,10.4
2023-04-10T07:50:06.474Z,10.5
2023-04-10T07:55:57.417Z,10.8
2023-04-10T08:01:49.302Z,10.9
2023-04-10T08:07:41.623Z,10.8
2023-04-10T08:13:33.349Z,10.9
2023-04-10T08:19:25.660Z,11.1
2023-04-10T08:25:18.416Z,11.1
2023-04-10T08:31:10.536Z,11.3
2023-04-10T08:37:04.105Z,11.4
2023-04-10T08:42:58.345Z,11.7
2023-04-10T08:48:50.053Z,11.9
2023-04-10T08:54:41.980Z,12.3
2023-04-10T09:00:33.577Z,12.2
2023-04-10T09:06:24.915Z,12.3
2023-04-10T09:12:15.998Z,12.5
2023-04-10T09:18:09.194Z,12.7
2023-04-10T09:24:00.363Z,12.9
2023-04-10T09:29:51.125Z,13.1
2023-04-10T09:35:42.277Z,13.1
2023-04-10T09:41:34.230Z,13.3
2023-04-10T09:47:25.569Z,13.8
2023-04-10T09:53:18.096Z,13.8
2023-04-10T09:59:10.922Z,14
2023-04-10T10:05:02.056Z,14.1
2023-04-10T10:10:54.309Z,14.4
2023-04-10T10:16:45.893Z,14.6
2023-04-10T10:22:37.872Z,14.8
2023-04-10T10:28:29.536Z,14.9
2023-04-10T10:34:23.851Z,15.1
2023-04-10T10:40:19.904Z,15.3
2023-04-10T10:46:11.420Z,15.5
2023-04-10T10:52:04.524Z,15.8
2023-04-10T10:57:58.738Z,16
2023-04-10T11:03:50.495Z,16.3
2023-04-10T11:09:43.437Z,16.4
2023-04-10T11:15:35.519Z,16.5
2023-04-10T11:21:28.382Z,16.5
2023-04-10T11:27:23.378Z,16.6
2023-04-10T11:33:16.946Z,16.9
2023-04-10T11:39:09.173Z,16.8
2023-04-10T11:45:01.689Z,17.1
2023-04-10T11:50:54.516Z,17.2
2023-04-10T11:56:48.353Z,17.1
2023-04-10T12:02:40.686Z,17.1
2023-04-10T12:08:32.265Z,17
2023-04-10T12:14:23.434Z,17
2023-04-10T12:20:15.729Z,17
2023-04-10T12:26:06.561Z,17.1
2023-04-10T12:31:56.217Z,17.1
2023-04-10T12:37:49.259Z,17.3
2023-04-10T12:43:42.093Z,17.6
2023-04-10T12:49:36.059Z,17.6
2023-04-10T12:55:30.710Z,17.9
2023-04-10T13:01:24.545Z,18.1
2023-04-10T13:07:22.623Z,18.2
2023-04-10T13:13:21.076Z,18.2
2023-04-10T13:19:22.649Z,18.3
2023-04-10T13:25:15.697Z,18.2
2023-04-10T13:31:08.295Z,18.2
2023-04-10T13:37:00.421Z,18.1
2023-04-10T13:42:51.835Z,18.1
2023-04-10T13:48:49.010Z,18.3
2023-04-10T13:54:48.194Z,18.3
2023-04-10T14:00:39.236Z,18.5
2023-04-10T14:06:33.743Z,18.6
2023-04-10T14:12:25.310Z,18.8
2023-04-10T14:18:17.901Z,18.9
2023-04-10T14:24:12.001Z,19
2023-04-10T14:30:05.475Z,18.9
2023-04-10T14:35:56.806Z,18.8
2023-04-10T14:41:53.090Z,18.7
2023-04-10T14:47:45.188Z,18.7
2023-04-10T14:53:39.126Z,18.7
2023-04-10T14:59:28.581Z,18.7
2023-04-10T15:05:18.957Z,18.6
2023-04-10T15:11:10.478Z,18.6
2023-04-10T15:17:03.965Z,18.4
2023-04-10T15:23:01.555Z,18.4
2023-04-10T15:28:54.882Z,18.3
2023-04-10T19:50:09.658Z,15.1
2023-04-10T19:56:05.287Z,15.1
2023-04-10T20:02:06.252Z,15.1
2023-04-10T20:08:22.963Z,15
2023-04-10T21:14:00.588Z,12.6
2023-04-10T21:32:36.355Z,12.1
2023-04-10T22:28:17.620Z,11.6
2023-04-10T22:34:09.137Z,11.6
2023-04-10T22:40:02.023Z,11.6
2023-04-10T22:45:55.058Z,11.5
2023-04-10T22:51:47.625Z,11.5
2023-04-10T22:57:39.239Z,11.6
2023-04-10T23:03:32.038Z,11.5
2023-04-10T23:09:22.642Z,11.5
2023-04-10T23:15:13.998Z,11.4
2023-04-10T23:21:05.462Z,11.1
2023-04-10T23:26:57.677Z,10.6
2023-04-10T23:32:50.270Z,11.1
2023-04-10T23:38:44.887Z,11.2
2023-04-10T23:44:37.113Z,11.2
2023-04-10T23:50:28.452Z,11
2023-04-10T23:56:20.689Z,11.2
